createdAt,value
2018-11-25T00:00:25.165Z,75.72
2018-11-25T00:01:25.029Z,76.10
2018-11-25T00:02:24.896Z,75.24
2018-11-25T00:03:24.766Z,75.24
2018-11-25T00:04:24.632Z,75.43
2018-11-25T00:05:24.503Z,75.43
2018-11-25T00:06:24.370Z,75.91
2018-11-25T00:07:24.239Z,76.48
2018-11-25T00:08:24.114Z,76.38
2018-11-25T00:09:23.975Z,76.00
2018-11-25T00:10:23.845Z,76.15
2018-11-25T00:11:23.713Z,75.87
2018-11-25T00:12:23.582Z,75.87
2018-11-25T00:13:23.450Z,75.59
2018-11-25T00:14:23.321Z,75.59
2018-11-25T00:15:23.189Z,74.26
2018-11-25T00:16:23.055Z,74.26
2018-11-25T00:17:22.933Z,74.07
2018-11-25T00:18:22.790Z,73.50
2018-11-25T00:19:22.660Z,73.22
2018-11-25T00:20:22.540Z,73.41
2018-11-25T00:21:22.397Z,73.22
2018-11-25T00:22:22.264Z,73.41
2018-11-25T00:23:22.132Z,73.50
2018-11-25T00:24:22.001Z,72.85
2018-11-25T00:25:21.868Z,72.18
2018-11-25T00:26:21.739Z,71.71
2018-11-25T00:27:21.604Z,72.18
2018-11-25T00:28:21.471Z,72.56
2018-11-25T00:29:21.343Z,72.18
2018-11-25T00:30:21.212Z,72.37
2018-11-25T00:31:21.075Z,71.80
2018-11-25T00:32:20.944Z,71.14
2018-11-25T00:33:20.811Z,70.67
2018-11-25T00:34:20.686Z,70.29
2018-11-25T00:35:20.548Z,70.67
2018-11-25T00:36:20.414Z,70.10
2018-11-25T00:37:20.282Z,69.63
2018-11-25T00:38:20.148Z,69.72
2018-11-25T00:39:20.024Z,70.01
2018-11-25T00:40:19.893Z,69.15
2018-11-25T00:41:19.762Z,69.44
2018-11-25T00:42:19.618Z,69.34
2018-11-25T00:43:19.485Z,68.96
2018-11-25T00:44:19.364Z,69.25
2018-11-25T00:45:19.222Z,68.30
2018-11-25T00:46:19.092Z,68.49
2018-11-25T00:47:18.959Z,68.49
2018-11-25T00:48:18.826Z,68.12
2018-11-25T00:49:18.699Z,68.02
2018-11-25T00:50:18.562Z,68.12
2018-11-25T00:51:18.427Z,67.83
2018-11-25T00:52:18.301Z,68.12
2018-11-25T00:53:18.164Z,67.64
2018-11-25T00:54:18.044Z,67.26
2018-11-25T00:55:17.897Z,66.88
2018-11-25T00:56:17.769Z,67.07
2018-11-25T00:57:17.631Z,67.17
2018-11-25T00:58:17.500Z,66.88
2018-11-25T00:59:17.368Z,67.26
2018-11-25T01:00:17.239Z,67.17
2018-11-25T01:01:17.105Z,67.17
2018-11-25T01:02:16.970Z,67.07
2018-11-25T01:03:16.841Z,66.60
2018-11-25T01:04:16.710Z,66.98
2018-11-25T01:05:16.581Z,67.17
2018-11-25T01:06:16.451Z,66.98
2018-11-25T01:07:16.308Z,67.17
2018-11-25T01:08:16.177Z,66.60
2018-11-25T01:09:16.044Z,66.22
2018-11-25T01:10:15.910Z,66.50
2018-11-25T01:11:15.784Z,66.50
2018-11-25T01:12:15.644Z,66.60
2018-11-25T01:13:15.513Z,66.79
2018-11-25T01:14:15.380Z,66.69
2018-11-25T01:15:15.249Z,66.31
2018-11-25T01:16:15.119Z,66.22
2018-11-25T01:17:14.982Z,66.41
2018-11-25T01:18:14.853Z,66.60
2018-11-25T01:19:14.719Z,66.41
2018-11-25T01:20:14.585Z,66.50
2018-11-25T01:21:14.454Z,66.69
2018-11-25T01:22:14.320Z,66.98
2018-11-25T01:23:14.190Z,66.88
2018-11-25T01:24:14.056Z,66.88
2018-11-25T01:25:13.946Z,66.88
2018-11-25T01:26:13.790Z,67.17
2018-11-25T01:27:13.679Z,66.98
2018-11-25T01:28:13.531Z,66.98
2018-11-25T01:29:13.396Z,66.88
2018-11-25T01:30:13.281Z,67.07
2018-11-25T01:31:13.132Z,66.98
2018-11-25T01:32:12.996Z,67.83
2018-11-25T01:33:12.869Z,67.64
2018-11-25T01:34:12.733Z,67.07
2018-11-25T01:35:12.601Z,66.98
2018-11-25T01:36:12.485Z,66.98
2018-11-25T01:37:12.338Z,66.69
2018-11-25T01:38:12.201Z,67.36
2018-11-25T01:39:12.071Z,67.64
2018-11-25T01:40:11.952Z,67.83
2018-11-25T01:41:11.807Z,67.64
2018-11-25T01:42:11.674Z,66.98
2018-11-25T01:43:11.539Z,66.79
2018-11-25T01:44:11.418Z,66.22
2018-11-25T01:45:11.275Z,65.84
2018-11-25T01:46:11.141Z,66.31
2018-11-25T01:47:11.013Z,65.94
2018-11-25T01:48:10.876Z,65.56
2018-11-25T01:49:10.744Z,65.47
2018-11-25T01:50:10.616Z,65.84
2018-11-25T01:51:10.478Z,65.75
2018-11-25T01:52:10.347Z,65.37
2018-11-25T01:53:10.231Z,65.56
2018-11-25T01:54:10.092Z,65.84
2018-11-25T01:55:10.002Z,66.22
2018-11-25T01:56:09.821Z,65.75
2018-11-25T01:57:09.685Z,65.84
2018-11-25T01:58:09.577Z,66.03
2018-11-25T01:59:09.417Z,65.75
2018-11-25T02:00:09.283Z,66.41
2018-11-25T02:01:09.150Z,66.31
2018-11-25T02:02:09.029Z,66.50
2018-11-25T02:03:08.884Z,66.38
2018-11-25T02:04:08.753Z,66.41
2018-11-25T02:05:08.624Z,66.28
2018-11-25T02:06:08.486Z,66.19
2018-11-25T02:07:08.355Z,66.28
2018-11-25T02:08:08.223Z,66.38
2018-11-25T02:09:08.090Z,66.47
2018-11-25T02:10:07.972Z,66.19
2018-11-25T02:11:07.825Z,66.09
2018-11-25T02:12:07.692Z,66.56
2018-11-25T02:13:07.558Z,66.19
2018-11-25T02:14:07.425Z,66.28
2018-11-25T02:15:07.297Z,66.28
2018-11-25T02:16:07.162Z,66.28
2018-11-25T02:17:07.027Z,66.38
2018-11-25T02:18:06.894Z,66.19
2018-11-25T02:19:06.764Z,66.19
2018-11-25T02:20:06.629Z,65.91
2018-11-25T02:21:06.496Z,65.53
2018-11-25T02:22:06.361Z,66.00
2018-11-25T02:23:06.234Z,65.91
2018-11-25T02:24:06.097Z,66.28
2018-11-25T02:25:05.964Z,65.91
2018-11-25T02:26:05.831Z,66.38
2018-11-25T02:27:05.697Z,66.19
2018-11-25T02:28:05.566Z,67.03
2018-11-25T02:29:05.432Z,66.75
2018-11-25T02:30:05.304Z,66.85
2018-11-25T02:31:05.165Z,66.38
2018-11-25T02:32:05.035Z,66.38
2018-11-25T02:33:04.898Z,66.66
2018-11-25T02:34:04.769Z,65.72
2018-11-25T02:35:04.633Z,65.81
2018-11-25T02:36:04.501Z,65.81
2018-11-25T02:37:04.369Z,65.81
2018-11-25T02:38:04.233Z,65.72
2018-11-25T02:39:04.102Z,66.66
2018-11-25T02:40:03.970Z,66.09
2018-11-25T02:41:03.834Z,66.66
2018-11-25T02:42:03.702Z,66.09
2018-11-25T02:43:03.566Z,65.91
2018-11-25T02:44:03.448Z,65.81
2018-11-25T02:45:03.302Z,65.72
2018-11-25T02:46:03.175Z,66.75
2018-11-25T02:47:03.036Z,67.32
2018-11-25T02:48:02.903Z,67.79
2018-11-25T02:49:02.770Z,66.94
2018-11-25T02:50:02.639Z,66.66
2018-11-25T02:51:02.502Z,66.28
2018-11-25T02:52:02.370Z,66.56
2018-11-25T02:53:02.247Z,66.19
2018-11-25T02:54:02.104Z,66.00
2018-11-25T02:55:01.983Z,65.72
2018-11-25T02:56:01.837Z,66.00
2018-11-25T02:57:01.705Z,66.47
2018-11-25T02:58:01.575Z,66.00
2018-11-25T02:59:01.437Z,66.09
2018-11-25T03:00:01.304Z,66.09
2018-11-25T03:01:01.172Z,66.66
2018-11-25T03:02:01.039Z,66.85
2018-11-25T03:03:00.908Z,66.75
2018-11-25T03:04:00.772Z,67.41
2018-11-25T03:05:00.638Z,67.03
2018-11-25T03:06:00.508Z,66.28
2018-11-25T03:07:00.374Z,66.28
2018-11-25T03:08:00.244Z,66.19
2018-11-25T03:09:00.108Z,65.81
2018-11-25T03:09:59.976Z,66.00
2018-11-25T03:10:59.839Z,65.81
2018-11-25T03:11:59.708Z,66.19
2018-11-25T03:12:59.574Z,66.47
2018-11-25T03:13:59.441Z,66.85
2018-11-25T03:14:59.308Z,66.94
2018-11-25T03:15:59.175Z,67.51
2018-11-25T03:16:59.042Z,67.32
2018-11-25T03:17:58.912Z,67.51
2018-11-25T03:18:58.775Z,67.70
2018-11-25T03:19:58.643Z,67.98
2018-11-25T03:20:58.510Z,67.70
2018-11-25T03:21:58.376Z,67.89
2018-11-25T03:22:58.246Z,68.17
2018-11-25T03:23:58.109Z,68.17
2018-11-25T03:24:57.974Z,69.12
2018-11-25T03:25:57.843Z,69.21
2018-11-25T03:26:57.712Z,69.49
2018-11-25T03:27:57.575Z,69.21
2018-11-25T03:28:57.442Z,69.02
2018-11-25T03:29:57.309Z,68.93
2018-11-25T03:30:57.176Z,69.87
2018-11-25T03:31:57.042Z,69.49
2018-11-25T03:32:56.907Z,68.65
2018-11-25T03:33:56.775Z,68.74
2018-11-25T03:34:56.640Z,68.36
2018-11-25T03:35:56.506Z,67.89
2018-11-25T03:36:56.374Z,67.89
2018-11-25T03:37:56.239Z,67.89
2018-11-25T03:38:56.137Z,67.79
2018-11-25T03:39:55.978Z,67.79
2018-11-25T03:40:55.842Z,67.98
2018-11-25T03:41:55.707Z,67.89
2018-11-25T03:42:55.583Z,68.74
2018-11-25T03:43:55.443Z,68.74
2018-11-25T03:44:55.310Z,69.31
2018-11-25T03:45:55.174Z,69.02
2018-11-25T03:46:55.042Z,68.65
2018-11-25T03:47:54.909Z,69.02
2018-11-25T03:48:54.775Z,70.35
2018-11-25T03:49:54.639Z,71.11
2018-11-25T03:50:54.507Z,70.44
2018-11-25T03:51:54.377Z,70.73
2018-11-25T03:52:54.241Z,70.35
2018-11-25T03:53:54.106Z,69.97
2018-11-25T03:54:53.977Z,70.82
2018-11-25T03:55:53.845Z,70.82
2018-11-25T03:56:53.706Z,70.16
2018-11-25T03:57:53.574Z,70.73
2018-11-25T03:58:53.439Z,71.11
2018-11-25T03:59:53.305Z,71.20
2018-11-25T04:00:53.173Z,71.30
2018-11-25T04:01:53.037Z,71.95
2018-11-25T04:02:52.905Z,71.30
2018-11-25T04:03:52.773Z,71.58
2018-11-25T04:04:52.640Z,72.14
2018-11-25T04:05:52.505Z,71.67
2018-11-25T04:06:52.374Z,72.24
2018-11-25T04:07:52.238Z,74.04
2018-11-25T04:08:52.107Z,74.79
2018-11-25T04:09:51.969Z,75.07
2018-11-25T04:10:51.839Z,74.79
2018-11-25T04:11:51.706Z,73.56
2018-11-25T04:12:51.572Z,73.37
2018-11-25T04:13:51.438Z,73.47
2018-11-25T04:14:51.304Z,72.90
2018-11-25T04:15:51.172Z,72.71
2018-11-25T04:16:51.036Z,73.47
2018-11-25T04:17:50.905Z,72.99
2018-11-25T04:18:50.770Z,73.09
2018-11-25T04:19:50.635Z,72.71
2018-11-25T04:20:50.500Z,72.80
2018-11-25T04:21:50.367Z,72.71
2018-11-25T04:22:50.240Z,72.24
2018-11-25T04:23:50.100Z,71.30
2018-11-25T04:24:49.967Z,71.77
2018-11-25T04:25:49.835Z,71.11
2018-11-25T04:26:49.700Z,71.95
2018-11-25T04:27:49.567Z,72.14
2018-11-25T04:28:49.432Z,71.30
2018-11-25T04:29:49.298Z,71.01
2018-11-25T04:30:49.164Z,70.82
2018-11-25T04:31:49.030Z,70.16
2018-11-25T04:32:48.950Z,70.92
2018-11-25T04:33:48.764Z,71.58
2018-11-25T04:34:48.628Z,72.90
2018-11-25T04:35:48.495Z,73.75
2018-11-25T04:36:48.363Z,72.71
2018-11-25T04:37:48.227Z,72.33
2018-11-25T04:38:48.095Z,71.30
2018-11-25T04:39:47.959Z,72.43
2018-11-25T04:40:47.830Z,72.80
2018-11-25T04:41:47.693Z,81.41
2018-11-25T04:42:47.563Z,81.88
2018-11-25T04:43:47.427Z,82.07
2018-11-25T04:44:47.292Z,82.45
2018-11-25T04:45:47.158Z,80.27
2018-11-25T04:46:47.027Z,79.14
2018-11-25T04:47:46.894Z,77.63
2018-11-25T04:48:46.758Z,78.58
2018-11-25T04:49:46.623Z,80.18
2018-11-25T04:50:46.491Z,79.14
2018-11-25T04:51:46.356Z,77.53
2018-11-25T04:52:46.229Z,77.63
2018-11-25T04:53:46.088Z,78.29
2018-11-25T04:54:45.955Z,78.16
2018-11-25T04:55:45.824Z,78.10
2018-11-25T04:56:45.690Z,77.50
2018-11-25T04:57:45.553Z,76.83
2018-11-25T04:58:45.422Z,75.98
2018-11-25T04:59:45.287Z,74.85
2018-11-25T05:00:45.155Z,74.00
2018-11-25T05:01:45.018Z,73.90
2018-11-25T05:02:44.884Z,73.71
2018-11-25T05:03:44.750Z,75.23
2018-11-25T05:04:44.618Z,76.64
2018-11-25T05:05:44.484Z,77.97
2018-11-25T05:06:44.352Z,79.57
2018-11-25T05:07:44.216Z,81.56
2018-11-25T05:08:44.084Z,82.98
2018-11-25T05:09:43.948Z,83.83
2018-11-25T05:10:43.814Z,84.11
2018-11-25T05:11:43.679Z,83.36
2018-11-25T05:12:43.545Z,82.12
2018-11-25T05:13:43.415Z,80.33
2018-11-25T05:14:43.279Z,79.38
2018-11-25T05:15:43.148Z,78.16
2018-11-25T05:16:43.040Z,76.74
2018-11-25T05:17:42.877Z,76.74
2018-11-25T05:18:42.743Z,77.50
2018-11-25T05:19:42.612Z,78.53
2018-11-25T05:20:42.482Z,79.95
2018-11-25T05:21:42.340Z,80.43
2018-11-25T05:22:42.211Z,79.10
2018-11-25T05:23:42.076Z,79.67
2018-11-25T05:24:41.940Z,79.48
2018-11-25T05:25:41.806Z,79.76
2018-11-25T05:26:41.673Z,80.43
2018-11-25T05:27:41.545Z,79.19
2018-11-25T05:28:41.404Z,77.50
2018-11-25T05:29:41.270Z,76.83
2018-11-25T05:30:41.138Z,76.83
2018-11-25T05:31:41.004Z,76.55
2018-11-25T05:32:40.872Z,77.02
2018-11-25T05:33:40.733Z,78.63
2018-11-25T05:34:40.603Z,80.14
2018-11-25T05:35:40.468Z,80.14
2018-11-25T05:36:40.333Z,78.34
2018-11-25T05:37:40.212Z,78.72
2018-11-25T05:38:40.064Z,77.21
2018-11-25T05:39:39.932Z,75.70
2018-11-25T05:40:39.798Z,75.42
2018-11-25T05:41:39.669Z,75.32
2018-11-25T05:42:39.532Z,76.45
2018-11-25T05:43:39.399Z,76.36
2018-11-25T05:44:39.271Z,77.69
2018-11-25T05:45:39.125Z,80.33
2018-11-25T05:46:38.990Z,80.05
2018-11-25T05:47:38.859Z,80.71
2018-11-25T05:48:38.725Z,82.03
2018-11-25T05:49:38.601Z,82.69
2018-11-25T05:50:38.456Z,82.12
2018-11-25T05:51:38.370Z,80.90
2018-11-25T05:52:38.189Z,80.14
2018-11-25T05:53:38.057Z,78.63
2018-11-25T05:54:37.921Z,79.10
2018-11-25T05:55:37.793Z,78.81
2018-11-25T05:56:37.651Z,78.81
2018-11-25T05:57:37.523Z,78.81
2018-11-25T05:58:37.381Z,79.67
2018-11-25T05:59:37.249Z,78.81
2018-11-25T06:00:37.115Z,78.06
2018-11-25T06:01:36.981Z,76.64
2018-11-25T06:02:36.846Z,76.83
2018-11-25T06:03:36.716Z,77.69
2018-11-25T06:04:36.578Z,77.97
2018-11-25T06:05:36.445Z,78.16
2018-11-25T06:06:36.312Z,77.87
2018-11-25T06:07:36.178Z,78.16
2018-11-25T06:08:36.041Z,78.44
2018-11-25T06:09:35.913Z,78.06
2018-11-25T06:10:35.775Z,78.34
2018-11-25T06:11:35.643Z,79.38
2018-11-25T06:12:35.506Z,80.43
2018-11-25T06:13:35.371Z,80.05
2018-11-25T06:14:35.239Z,79.76
2018-11-25T06:15:35.106Z,79.00
2018-11-25T06:16:34.969Z,79.67
2018-11-25T06:17:34.833Z,80.90
2018-11-25T06:18:34.700Z,80.80
2018-11-25T06:19:34.566Z,80.52
2018-11-25T06:20:34.433Z,81.27
2018-11-25T06:21:34.299Z,82.22
2018-11-25T06:22:34.165Z,80.99
2018-11-25T06:23:34.031Z,81.56
2018-11-25T06:24:33.897Z,83.17
2018-11-25T06:25:33.760Z,84.20
2018-11-25T06:26:33.627Z,83.17
2018-11-25T06:27:38.239Z,83.45
2018-11-25T06:28:33.360Z,82.88
2018-11-25T06:29:33.225Z,81.27
2018-11-25T06:30:33.090Z,81.09
2018-11-25T06:31:32.957Z,80.90
2018-11-25T06:32:32.823Z,80.80
2018-11-25T06:33:32.689Z,81.09
2018-11-25T06:34:32.554Z,83.92
2018-11-25T06:35:32.421Z,83.73
2018-11-25T06:36:32.286Z,84.30
2018-11-25T06:37:32.150Z,81.74
2018-11-25T06:38:32.018Z,81.18
2018-11-25T06:39:31.883Z,80.52
2018-11-25T06:40:31.749Z,80.52
2018-11-25T06:41:34.066Z,80.43
2018-11-25T06:42:31.480Z,80.24
2018-11-25T06:43:31.346Z,81.27
2018-11-25T06:44:31.212Z,84.39
2018-11-25T06:45:31.082Z,86.29
2018-11-25T06:46:30.945Z,84.39
2018-11-25T06:47:30.811Z,85.72
2018-11-25T06:48:30.675Z,85.15
2018-11-25T06:49:30.594Z,82.50
2018-11-25T06:50:30.409Z,80.90
2018-11-25T06:51:30.275Z,81.09
2018-11-25T06:52:30.138Z,82.12
2018-11-25T06:53:30.006Z,84.30
2018-11-25T06:54:29.871Z,82.69
2018-11-25T06:55:29.739Z,83.54
2018-11-25T06:56:29.605Z,83.54
2018-11-25T06:57:29.468Z,82.50
2018-11-25T06:58:29.335Z,82.69
2018-11-25T06:59:29.199Z,83.07
2018-11-25T07:00:29.066Z,85.43
2018-11-25T07:01:28.930Z,86.47
2018-11-25T07:02:28.799Z,87.23
2018-11-25T07:03:28.667Z,87.13
2018-11-25T07:04:28.529Z,87.89
2018-11-25T07:05:28.395Z,87.70
2018-11-25T07:06:28.268Z,87.23
2018-11-25T07:07:28.128Z,87.51
2018-11-25T07:08:27.994Z,86.85
2018-11-25T07:09:27.902Z,85.53
2018-11-25T07:10:27.730Z,85.24
2018-11-25T07:11:27.594Z,84.01
2018-11-25T07:12:27.459Z,82.98
2018-11-25T07:13:27.324Z,81.27
2018-11-25T07:14:27.192Z,80.71
2018-11-25T07:15:27.057Z,80.99
2018-11-25T07:16:26.923Z,81.65
2018-11-25T07:17:26.790Z,81.79
2018-11-25T07:18:26.654Z,81.41
2018-11-25T07:19:26.524Z,81.60
2018-11-25T07:20:26.388Z,81.22
2018-11-25T07:21:26.253Z,84.25
2018-11-25T07:22:26.119Z,84.44
2018-11-25T07:23:25.988Z,87.46
2018-11-25T07:24:25.853Z,85.76
2018-11-25T07:25:25.723Z,85.95
2018-11-25T07:26:25.586Z,86.14
2018-11-25T07:27:25.451Z,99.99
2018-11-25T07:28:25.317Z,99.99
2018-11-25T07:29:25.182Z,99.99
2018-11-25T07:30:25.054Z,99.09
2018-11-25T07:31:25.088Z,95.78
2018-11-25T07:32:24.784Z,94.46
2018-11-25T07:33:24.649Z,95.97
2018-11-25T07:34:24.553Z,96.73
2018-11-25T07:35:24.388Z,97.01
2018-11-25T07:36:24.249Z,99.19
2018-11-25T07:37:24.115Z,97.39
2018-11-25T07:38:23.982Z,92.47
2018-11-25T07:39:23.850Z,89.83
2018-11-25T07:40:23.717Z,91.91
2018-11-25T07:41:23.582Z,92.00
2018-11-25T07:42:23.614Z,88.60
2018-11-25T07:43:23.314Z,87.37
2018-11-25T07:44:23.180Z,89.07
2018-11-25T07:45:30.200Z,90.20
2018-11-25T07:46:22.913Z,87.55
2018-11-25T07:47:22.780Z,90.58
2018-11-25T07:48:22.703Z,93.13
2018-11-25T07:49:22.515Z,92.38
2018-11-25T07:50:22.385Z,93.61
2018-11-25T07:51:22.253Z,94.65
2018-11-25T07:52:22.137Z,95.03
2018-11-25T07:53:21.979Z,94.93
2018-11-25T07:54:21.858Z,95.50
2018-11-25T07:55:21.715Z,93.80
2018-11-25T07:56:21.579Z,93.80
2018-11-25T07:57:21.447Z,95.50
2018-11-25T07:58:21.319Z,92.29
2018-11-25T07:59:21.178Z,87.18
2018-11-25T08:00:21.055Z,87.27
2018-11-25T08:01:20.913Z,87.55
2018-11-25T08:02:20.779Z,86.90
2018-11-25T08:03:20.646Z,85.95
2018-11-25T08:04:20.515Z,85.28
2018-11-25T08:05:20.377Z,89.92
2018-11-25T08:06:20.254Z,92.76
2018-11-25T08:07:20.112Z,92.19
2018-11-25T08:08:20.009Z,99.28
2018-11-25T08:09:19.904Z,99.99
2018-11-25T08:10:19.714Z,99.99
2018-11-25T08:11:19.580Z,99.99
2018-11-25T08:12:19.448Z,99.99
2018-11-25T08:13:19.314Z,99.99
2018-11-25T08:14:19.181Z,99.99
2018-11-25T08:15:19.049Z,99.99
2018-11-25T08:16:18.918Z,99.99
2018-11-25T08:17:18.782Z,99.99
2018-11-25T08:18:18.648Z,99.99
2018-11-25T08:19:18.536Z,99.99
2018-11-25T08:20:18.392Z,98.48
2018-11-25T08:21:18.254Z,97.16
2018-11-25T08:22:18.122Z,95.64
2018-11-25T08:23:17.987Z,94.65
2018-11-25T08:24:17.859Z,93.04
2018-11-25T08:25:17.726Z,91.86
2018-11-25T08:26:18.340Z,91.48
2018-11-25T08:27:17.460Z,94.42
2018-11-25T08:28:17.343Z,92.52
2018-11-25T08:29:17.205Z,89.69
2018-11-25T08:30:17.061Z,89.31
2018-11-25T08:31:16.937Z,89.40
2018-11-25T08:32:16.796Z,90.63
2018-11-25T08:33:16.662Z,91.48
2018-11-25T08:34:16.531Z,93.47
2018-11-25T08:35:16.425Z,93.94
2018-11-25T08:36:16.267Z,93.56
2018-11-25T08:37:16.135Z,94.13
2018-11-25T08:38:16.079Z,93.37
2018-11-25T08:39:15.872Z,93.75
2018-11-25T08:40:15.741Z,92.33
2018-11-25T08:41:15.603Z,92.61
2018-11-25T08:42:15.472Z,98.10
2018-11-25T08:43:15.340Z,99.09
2018-11-25T08:44:15.205Z,97.77
2018-11-25T08:45:15.145Z,95.59
2018-11-25T08:46:14.941Z,94.46
2018-11-25T08:47:14.809Z,96.45
2018-11-25T08:48:14.708Z,99.99
2018-11-25T08:49:14.545Z,99.85
2018-11-25T08:50:14.418Z,99.99
2018-11-25T08:51:14.278Z,99.99
2018-11-25T08:52:14.154Z,99.99
2018-11-25T08:53:14.014Z,99.99
2018-11-25T08:54:13.881Z,99.99
2018-11-25T08:55:13.748Z,99.99
2018-11-25T08:56:13.632Z,99.99
2018-11-25T08:57:13.483Z,99.99
2018-11-25T08:58:13.445Z,99.99
2018-11-25T08:59:13.219Z,99.99
2018-11-25T09:00:13.085Z,99.99
2018-11-25T09:01:12.953Z,99.99
2018-11-25T09:02:12.822Z,98.39
2018-11-25T09:03:12.688Z,99.15
2018-11-25T09:04:12.589Z,99.99
2018-11-25T09:05:12.423Z,99.99
2018-11-25T09:06:12.290Z,99.99
2018-11-25T09:07:12.493Z,99.99
2018-11-25T09:08:12.825Z,99.99
2018-11-25T09:09:11.892Z,99.99
2018-11-25T09:10:11.760Z,99.99
2018-11-25T09:11:11.720Z,99.99
2018-11-25T09:12:11.494Z,99.99
2018-11-25T09:13:11.519Z,99.99
2018-11-25T09:14:11.535Z,99.99
2018-11-25T09:15:11.190Z,99.99
2018-11-25T09:16:10.969Z,99.99
2018-11-25T09:17:10.896Z,99.99
2018-11-25T09:18:10.761Z,99.99
2018-11-25T09:19:10.571Z,99.99
2018-11-25T09:20:10.441Z,99.99
2018-11-25T09:21:10.306Z,99.99
2018-11-25T09:22:10.245Z,99.99
2018-11-25T09:23:10.042Z,99.99
2018-11-25T09:24:09.910Z,99.99
2018-11-25T09:25:09.789Z,99.99
2018-11-25T09:26:09.647Z,99.99
2018-11-25T09:27:09.515Z,99.99
2018-11-25T09:28:09.420Z,99.99
2018-11-25T09:29:09.249Z,99.99
2018-11-25T09:30:09.120Z,99.99
2018-11-25T09:31:08.988Z,99.99
2018-11-25T09:32:08.859Z,99.99
2018-11-25T09:33:08.799Z,99.99
2018-11-25T09:34:08.598Z,99.99
2018-11-25T09:35:08.487Z,99.99
2018-11-25T09:36:08.343Z,99.99
2018-11-25T09:37:08.202Z,99.99
2018-11-25T09:38:08.091Z,99.99
2018-11-25T09:39:07.993Z,99.99
2018-11-25T09:40:07.813Z,99.99
2018-11-25T09:41:08.008Z,99.99
2018-11-25T09:42:07.545Z,99.99
2018-11-25T09:43:07.415Z,99.99
2018-11-25T09:44:07.470Z,99.99
2018-11-25T09:45:07.239Z,99.99
2018-11-25T09:46:07.112Z,99.63
2018-11-25T09:47:07.478Z,96.83
2018-11-25T09:48:06.934Z,94.37
2018-11-25T09:49:06.635Z,94.84
2018-11-25T09:50:06.503Z,90.00
2018-11-25T09:51:06.389Z,87.12
2018-11-25T09:52:06.244Z,94.46
2018-11-25T09:53:06.112Z,97.88
2018-11-25T09:54:05.982Z,94.74
2018-11-25T09:55:06.234Z,89.53
2018-11-25T09:56:05.752Z,86.68
2018-11-25T09:57:05.591Z,91.61
2018-11-25T09:58:05.586Z,89.43
2018-11-25T09:59:05.335Z,86.68
2018-11-25T10:00:05.203Z,91.71
2018-11-25T10:01:05.073Z,87.82
2018-11-25T10:02:05.025Z,88.58
2018-11-25T10:03:04.818Z,90.86
2018-11-25T10:04:04.688Z,95.46
2018-11-25T10:05:04.561Z,91.75
2018-11-25T10:06:04.427Z,96.69
2018-11-25T10:07:04.300Z,94.89
2018-11-25T10:08:04.169Z,95.65
2018-11-25T10:09:04.041Z,93.56
2018-11-25T10:10:03.910Z,93.08
2018-11-25T10:11:03.782Z,95.03
2018-11-25T10:12:03.653Z,93.60
2018-11-25T10:13:03.529Z,90.19
2018-11-25T10:14:03.401Z,89.05
2018-11-25T10:15:03.269Z,88.01
2018-11-25T10:16:03.141Z,87.05
2018-11-25T10:17:03.010Z,85.63
2018-11-25T10:18:02.898Z,85.44
2018-11-25T10:19:02.757Z,84.40
2018-11-25T10:20:02.661Z,84.68
2018-11-25T10:21:02.499Z,84.97
2018-11-25T10:22:02.375Z,84.68
2018-11-25T10:23:02.243Z,83.54
2018-11-25T10:24:02.147Z,82.50
2018-11-25T10:25:02.073Z,81.74
2018-11-25T10:26:01.857Z,82.40
2018-11-25T10:27:01.728Z,83.64
2018-11-25T10:28:01.602Z,83.73
2018-11-25T10:29:01.474Z,81.65
2018-11-25T10:30:01.347Z,80.98
2018-11-25T10:31:01.226Z,79.65
2018-11-25T10:32:01.087Z,79.46
2018-11-25T10:33:01.011Z,79.74
2018-11-25T10:34:00.831Z,79.46
2018-11-25T10:35:00.705Z,80.16
2018-11-25T10:36:04.542Z,79.69
2018-11-25T10:37:00.450Z,80.07
2018-11-25T10:38:00.316Z,78.64
2018-11-25T10:39:00.188Z,80.16
2018-11-25T10:40:00.068Z,83.11
2018-11-25T10:40:59.933Z,81.74
2018-11-25T10:41:59.806Z,78.03
2018-11-25T10:42:59.676Z,78.93
2018-11-25T10:43:59.549Z,79.50
2018-11-25T10:44:59.419Z,78.55
2018-11-25T10:45:59.301Z,78.27
2018-11-25T10:46:59.167Z,80.88
2018-11-25T10:47:59.039Z,82.92
2018-11-25T10:48:58.910Z,81.65
2018-11-25T10:49:58.785Z,80.88
2018-11-25T10:50:58.654Z,80.83
2018-11-25T10:51:58.527Z,80.13
2018-11-25T10:52:58.398Z,82.88
2018-11-25T10:53:58.269Z,81.93
2018-11-25T10:54:58.145Z,79.84
2018-11-25T10:55:58.016Z,82.31
2018-11-25T10:56:57.887Z,82.69
2018-11-25T10:57:57.792Z,81.55
2018-11-25T10:58:57.632Z,82.59
2018-11-25T10:59:57.510Z,82.78
2018-11-25T11:00:57.375Z,81.93
2018-11-25T11:01:57.250Z,82.78
2018-11-25T11:02:57.120Z,82.73
2018-11-25T11:03:56.994Z,82.31
2018-11-25T11:04:56.864Z,84.59
2018-11-25T11:05:56.738Z,86.77
2018-11-25T11:06:56.609Z,86.82
2018-11-25T11:07:56.482Z,85.01
2018-11-25T11:08:56.352Z,83.59
2018-11-25T11:09:56.225Z,84.53
2018-11-25T11:10:56.098Z,86.53
2018-11-25T11:11:55.971Z,86.95
2018-11-25T11:12:55.841Z,85.91
2018-11-25T11:13:55.717Z,81.82
2018-11-25T11:14:55.590Z,80.49
2018-11-25T11:15:55.460Z,81.02
2018-11-25T11:16:55.331Z,85.96
2018-11-25T11:17:55.203Z,87.34
2018-11-25T11:18:55.079Z,85.43
2018-11-25T11:19:54.950Z,83.06
2018-11-25T11:20:54.823Z,83.72
2018-11-25T11:21:54.761Z,83.44
2018-11-25T11:22:54.568Z,79.92
2018-11-25T11:23:54.449Z,78.78
2018-11-25T11:24:54.312Z,81.73
2018-11-25T11:25:54.186Z,82.43
2018-11-25T11:26:54.114Z,79.49
2018-11-25T11:27:53.932Z,79.49
2018-11-25T11:28:53.804Z,81.20
2018-11-25T11:29:53.676Z,80.05
2018-11-25T11:30:53.551Z,78.88
2018-11-25T11:31:53.423Z,79.73
2018-11-25T11:32:53.294Z,79.16
2018-11-25T11:33:53.183Z,79.22
2018-11-25T11:34:53.042Z,82.26
2018-11-25T11:35:52.982Z,81.40
2018-11-25T11:36:52.942Z,81.21
2018-11-25T11:37:52.821Z,81.40
2018-11-25T11:38:52.562Z,82.26
2018-11-25T11:39:52.552Z,82.40
2018-11-25T11:40:52.291Z,82.88
2018-11-25T11:41:52.180Z,82.69
2018-11-25T11:42:52.056Z,83.45
2018-11-25T11:43:52.042Z,82.84
2018-11-25T11:44:51.777Z,84.36
2018-11-25T11:45:51.646Z,84.45
2018-11-25T11:46:51.608Z,85.49
2018-11-25T11:47:51.390Z,84.45
2018-11-25T11:48:51.263Z,84.45
2018-11-25T11:49:51.131Z,83.50
2018-11-25T11:50:51.004Z,85.97
2018-11-25T11:51:50.876Z,86.63
2018-11-25T11:52:50.791Z,87.96
2018-11-25T11:53:50.619Z,88.15
2018-11-25T11:54:50.493Z,85.97
2018-11-25T11:55:50.368Z,85.59
2018-11-25T11:56:50.235Z,85.87
2018-11-25T11:57:50.112Z,85.78
2018-11-25T11:58:49.981Z,87.49
2018-11-25T11:59:49.850Z,89.29
2018-11-25T12:00:49.721Z,90.14
2018-11-25T12:01:49.594Z,90.24
2018-11-25T12:02:49.464Z,88.67
2018-11-25T12:03:49.342Z,89.62
2018-11-25T12:04:49.212Z,88.57
2018-11-25T12:05:49.084Z,86.20
2018-11-25T12:06:49.004Z,85.72
2018-11-25T12:07:49.780Z,84.30
2018-11-25T12:08:48.751Z,84.49
2018-11-25T12:09:48.642Z,83.45
2018-11-25T12:10:48.484Z,81.93
2018-11-25T12:11:48.388Z,78.51
2018-11-25T12:12:48.280Z,73.38
2018-11-25T12:13:48.250Z,69.30
2018-11-25T12:14:50.295Z,72.72
2018-11-25T12:15:47.878Z,73.76
2018-11-25T12:16:47.922Z,73.86
2018-11-25T12:17:47.605Z,74.81
2018-11-25T12:18:47.419Z,74.52
2018-11-25T12:19:47.287Z,73.86
2018-11-25T12:20:47.159Z,74.62
2018-11-25T12:21:47.182Z,74.24
2018-11-25T12:22:47.491Z,72.44
2018-11-25T12:23:46.889Z,71.30
2018-11-25T12:24:46.653Z,70.25
2018-11-25T12:25:46.523Z,69.87
2018-11-25T12:26:46.390Z,70.82
2018-11-25T12:27:46.323Z,70.44
2018-11-25T12:28:46.134Z,70.54
2018-11-25T12:29:46.006Z,71.96
2018-11-25T12:30:45.878Z,72.72
2018-11-25T12:31:45.754Z,72.15
2018-11-25T12:32:45.623Z,72.81
2018-11-25T12:33:45.512Z,73.86
2018-11-25T12:34:45.374Z,73.57
2018-11-25T12:35:45.236Z,75.47
2018-11-25T12:36:45.109Z,78.13
2018-11-25T12:37:44.980Z,79.94
2018-11-25T12:38:44.852Z,79.94
2018-11-25T12:39:44.733Z,78.61
2018-11-25T12:40:44.604Z,77.56
2018-11-25T12:41:44.466Z,78.51
2018-11-25T12:42:44.339Z,80.69
2018-11-25T12:43:44.210Z,79.36
2018-11-25T12:44:44.085Z,76.61
2018-11-25T12:45:43.968Z,76.32
2018-11-25T12:46:43.858Z,78.03
2018-11-25T12:47:43.698Z,77.75
2018-11-25T12:48:43.568Z,76.32
2018-11-25T12:49:43.441Z,74.90
2018-11-25T12:50:43.311Z,74.24